sensor_id;sensor_type;location;lat;lon;timestamp;temperature;humidity
62259;DHT22;48241;48.824;10.102;2022-10-03T00:13:10;13.50;98.00
62259;DHT22;48241;48.824;10.102;2022-10-03T00:15:08;13.60;98.10
62259;DHT22;48241;48.824;10.102;2022-10-03T00:18:00;13.60;97.90
62259;DHT22;48241;48.824;10.102;2022-10-03T00:23:26;13.80;98.00
62259;DHT22;48241;48.824;10.102;2022-10-03T00:26:14;13.70;97.80
62259;DHT22;48241;48.824;10.102;2022-10-03T00:37:35;13.70;97.40
62259;DHT22;48241;48.824;10.102;2022-10-03T00:43:15;13.60;98.10
62259;DHT22;48241;48.824;10.102;2022-10-03T01:00:29;13.40;98.20
62259;DHT22;48241;48.824;10.102;2022-10-03T01:22:34;14.00;96.50
62259;DHT22;48241;48.824;10.102;2022-10-03T01:30:25;14.00;96.50
62259;DHT22;48241;48.824;10.102;2022-10-03T01:33:02;14.10;96.40
62259;DHT22;48241;48.824;10.102;2022-10-03T01:40:50;14.30;96.00
62259;DHT22;48241;48.824;10.102;2022-10-03T01:46:24;14.00;96.10
62259;DHT22;48241;48.824;10.102;2022-10-03T01:49:08;13.90;96.30
62259;DHT22;48241;48.824;10.102;2022-10-03T01:51:59;14.00;96.40
62259;DHT22;48241;48.824;10.102;2022-10-03T01:54:35;13.90;96.70
62259;DHT22;48241;48.824;10.102;2022-10-03T02:05:10;13.70;97.10
62259;DHT22;48241;48.824;10.102;2022-10-03T02:07:51;13.70;97.00
62259;DHT22;48241;48.824;10.102;2022-10-03T02:11:02;13.70;97.00
62259;DHT22;48241;48.824;10.102;2022-10-03T02:19:21;14.10;96.20
62259;DHT22;48241;48.824;10.102;2022-10-03T02:21:53;14.20;96.00
62259;DHT22;48241;48.824;10.102;2022-10-03T02:27:12;14.10;96.20
62259;DHT22;48241;48.824;10.102;2022-10-03T02:30:18;14.20;95.90
62259;DHT22;48241;48.824;10.102;2022-10-03T02:35:47;13.70;96.90
62259;DHT22;48241;48.824;10.102;2022-10-03T03:01:13;13.60;97.70
62259;DHT22;48241;48.824;10.102;2022-10-03T03:04:20;13.50;97.70
62259;DHT22;48241;48.824;10.102;2022-10-03T03:18:45;13.80;97.30
62259;DHT22;48241;48.824;10.102;2022-10-03T03:29:53;14.00;96.70
62259;DHT22;48241;48.824;10.102;2022-10-03T03:43:40;14.00;96.70
62259;DHT22;48241;48.824;10.102;2022-10-03T03:49:03;14.10;96.40
62259;DHT22;48241;48.824;10.102;2022-10-03T03:57:33;14.20;95.90
62259;DHT22;48241;48.824;10.102;2022-10-03T04:00:18;14.40;95.70
62259;DHT22;48241;48.824;10.102;2022-10-03T04:08:23;14.30;95.40
62259;DHT22;48241;48.824;10.102;2022-10-03T04:22:22;13.80;95.80
62259;DHT22;48241;48.824;10.102;2022-10-03T04:37:04;13.80;95.80
62259;DHT22;48241;48.824;10.102;2022-10-03T04:41:57;13.90;95.60
62259;DHT22;48241;48.824;10.102;2022-10-03T04:50:02;14.20;95.50
62259;DHT22;48241;48.824;10.102;2022-10-03T04:52:41;14.20;95.30
62259;DHT22;48241;48.824;10.102;2022-10-03T05:01:02;14.20;95.60
62259;DHT22;48241;48.824;10.102;2022-10-03T05:20:21;14.60;94.70
62259;DHT22;48241;48.824;10.102;2022-10-03T05:41:11;14.00;95.50
62259;DHT22;48241;48.824;10.102;2022-10-03T05:44:25;14.00;95.80
62259;DHT22;48241;48.824;10.102;2022-10-03T05:53:21;14.10;95.50
62259;DHT22;48241;48.824;10.102;2022-10-03T05:56:05;14.10;95.60
62259;DHT22;48241;48.824;10.102;2022-10-03T05:58:39;14.20;95.50
62259;DHT22;48241;48.824;10.102;2022-10-03T06:04:09;14.40;94.80
62259;DHT22;48241;48.824;10.102;2022-10-03T08:26:44;18.20;74.80
62259;DHT22;48241;48.824;10.102;2022-10-03T10:48:09;17.30;67.40
62259;DHT22;48241;48.824;10.102;2022-10-03T11:02:22;18.90;68.00
62259;DHT22;48241;48.824;10.102;2022-10-03T11:17:17;20.00;63.70
62259;DHT22;48241;48.824;10.102;2022-10-03T11:25:54;20.80;60.00
62259;DHT22;48241;48.824;10.102;2022-10-03T11:37:53;21.00;58.20
62259;DHT22;48241;48.824;10.102;2022-10-03T11:40:30;20.80;55.80
62259;DHT22;48241;48.824;10.102;2022-10-03T11:43:33;20.20;57.70
62259;DHT22;48241;48.824;10.102;2022-10-03T11:46:53;20.00;55.80
62259;DHT22;48241;48.824;10.102;2022-10-03T12:00:24;20.10;57.30
62259;DHT22;48241;48.824;10.102;2022-10-03T12:03:30;19.80;57.00
62259;DHT22;48241;48.824;10.102;2022-10-03T12:06:14;20.00;56.90
62259;DHT22;48241;48.824;10.102;2022-10-03T12:09:14;19.90;57.60
62259;DHT22;48241;48.824;10.102;2022-10-03T12:12:03;19.70;56.60
62259;DHT22;48241;48.824;10.102;2022-10-03T12:14:43;19.50;58.10
62259;DHT22;48241;48.824;10.102;2022-10-03T12:22:51;19.10;59.20
62259;DHT22;48241;48.824;10.102;2022-10-03T12:25:34;18.90;57.60
62259;DHT22;48241;48.824;10.102;2022-10-03T12:30:47;18.60;61.30
62259;DHT22;48241;48.824;10.102;2022-10-03T12:36:14;18.30;61.70
62259;DHT22;48241;48.824;10.102;2022-10-03T12:47:25;18.40;64.70
62259;DHT22;48241;48.824;10.102;2022-10-03T12:52:38;18.90;59.30
62259;DHT22;48241;48.824;10.102;2022-10-03T12:55:24;18.90;59.30
62259;DHT22;48241;48.824;10.102;2022-10-03T13:03:38;19.20;58.60
62259;DHT22;48241;48.824;10.102;2022-10-03T13:20:02;17.80;60.90
62259;DHT22;48241;48.824;10.102;2022-10-03T13:22:35;17.90;64.00
62259;DHT22;48241;48.824;10.102;2022-10-03T13:25:21;18.00;66.80
62259;DHT22;48241;48.824;10.102;2022-10-03T13:33:20;18.30;67.80
62259;DHT22;48241;48.824;10.102;2022-10-03T13:36:00;18.60;60.90
62259;DHT22;48241;48.824;10.102;2022-10-03T13:38:53;18.80;55.50
62259;DHT22;48241;48.824;10.102;2022-10-03T13:47:03;19.10;58.50
62259;DHT22;48241;48.824;10.102;2022-10-03T13:52:22;18.80;57.70
62259;DHT22;48241;48.824;10.102;2022-10-03T13:57:43;18.80;62.60
62259;DHT22;48241;48.824;10.102;2022-10-03T14:00:18;18.70;61.40
62259;DHT22;48241;48.824;10.102;2022-10-03T14:08:28;19.10;60.30
62259;DHT22;48241;48.824;10.102;2022-10-03T14:11:23;19.40;61.60
62259;DHT22;48241;48.824;10.102;2022-10-03T14:14:14;19.30;56.50
62259;DHT22;48241;48.824;10.102;2022-10-03T14:25:34;19.50;56.50
62259;DHT22;48241;48.824;10.102;2022-10-03T14:28:24;19.20;57.50
62259;DHT22;48241;48.824;10.102;2022-10-03T14:31:05;18.80;58.50
62259;DHT22;48241;48.824;10.102;2022-10-03T14:36:58;18.40;59.30
62259;DHT22;48241;48.824;10.102;2022-10-03T14:44:59;17.80;63.70
62259;DHT22;48241;48.824;10.102;2022-10-03T14:47:33;18.10;65.80
62259;DHT22;48241;48.824;10.102;2022-10-03T14:50:00;18.20;65.80
62259;DHT22;48241;48.824;10.102;2022-10-03T14:52:49;18.40;64.10
62259;DHT22;48241;48.824;10.102;2022-10-03T14:55:25;18.20;66.70
62259;DHT22;48241;48.824;10.102;2022-10-03T14:58:01;18.30;60.90
62259;DHT22;48241;48.824;10.102;2022-10-03T15:00:48;18.30;60.90
62259;DHT22;48241;48.824;10.102;2022-10-03T15:03:21;18.20;63.40
62259;DHT22;48241;48.824;10.102;2022-10-03T15:08:54;18.00;69.80
62259;DHT22;48241;48.824;10.102;2022-10-03T15:11:34;18.00;70.50
62259;DHT22;48241;48.824;10.102;2022-10-03T15:14:04;17.80;68.20
62259;DHT22;48241;48.824;10.102;2022-10-03T15:16:52;17.50;72.20
62259;DHT22;48241;48.824;10.102;2022-10-03T15:19:41;17.50;72.70
62259;DHT22;48241;48.824;10.102;2022-10-03T15:24:53;17.40;73.30
62259;DHT22;48241;48.824;10.102;2022-10-03T15:27:21;17.30;68.80
62259;DHT22;48241;48.824;10.102;2022-10-03T15:29:53;17.30;69.30
62259;DHT22;48241;48.824;10.102;2022-10-03T15:32:40;17.20;75.10
62259;DHT22;48241;48.824;10.102;2022-10-03T15:35:27;17.40;68.60
62259;DHT22;48241;48.824;10.102;2022-10-03T15:38:00;17.40;67.50
62259;DHT22;48241;48.824;10.102;2022-10-03T15:40:35;17.30;71.90
62259;DHT22;48241;48.824;10.102;2022-10-03T15:45:55;17.10;76.20
62259;DHT22;48241;48.824;10.102;2022-10-03T15:48:21;16.90;76.80
62259;DHT22;48241;48.824;10.102;2022-10-03T15:50:54;16.60;77.90
62259;DHT22;48241;48.824;10.102;2022-10-03T15:53:30;16.10;77.60
62259;DHT22;48241;48.824;10.102;2022-10-03T15:58:32;15.40;81.00
62259;DHT22;48241;48.824;10.102;2022-10-03T16:01:10;15.20;82.70
62259;DHT22;48241;48.824;10.102;2022-10-03T16:04:00;14.90;82.50
62259;DHT22;48241;48.824;10.102;2022-10-03T16:09:52;13.90;88.30
62259;DHT22;48241;48.824;10.102;2022-10-03T16:15:20;13.60;90.40
62259;DHT22;48241;48.824;10.102;2022-10-03T16:18:09;13.50;90.50
62259;DHT22;48241;48.824;10.102;2022-10-03T16:20:46;13.30;90.90
62259;DHT22;48241;48.824;10.102;2022-10-03T16:23:17;12.90;91.60
62259;DHT22;48241;48.824;10.102;2022-10-03T16:26:06;13.00;91.80
62259;DHT22;48241;48.824;10.102;2022-10-03T16:28:43;13.10;91.40
62259;DHT22;48241;48.824;10.102;2022-10-03T16:31:23;13.00;91.60
62259;DHT22;48241;48.824;10.102;2022-10-03T16:34:04;13.00;91.90
62259;DHT22;48241;48.824;10.102;2022-10-03T16:36:39;12.80;92.80
62259;DHT22;48241;48.824;10.102;2022-10-03T16:39:16;12.70;92.90
62259;DHT22;48241;48.824;10.102;2022-10-03T16:41:43;12.60;93.00
62259;DHT22;48241;48.824;10.102;2022-10-03T16:47:04;12.30;93.90
62259;DHT22;48241;48.824;10.102;2022-10-03T16:52:28;12.10;94.60
62259;DHT22;48241;48.824;10.102;2022-10-03T16:55:02;12.00;95.10
62259;DHT22;48241;48.824;10.102;2022-10-03T16:57:48;11.80;95.70
62259;DHT22;48241;48.824;10.102;2022-10-03T17:00:23;11.70;95.80
62259;DHT22;48241;48.824;10.102;2022-10-03T17:02:51;11.50;96.70
62259;DHT22;48241;48.824;10.102;2022-10-03T17:05:19;11.40;96.90
62259;DHT22;48241;48.824;10.102;2022-10-03T17:07:49;11.40;96.50
62259;DHT22;48241;48.824;10.102;2022-10-03T17:10:36;11.30;96.60
62259;DHT22;48241;48.824;10.102;2022-10-03T17:13:26;11.30;96.80
62259;DHT22;48241;48.824;10.102;2022-10-03T17:16:00;11.20;97.20
62259;DHT22;48241;48.824;10.102;2022-10-03T17:18:41;11.20;96.90
62259;DHT22;48241;48.824;10.102;2022-10-03T17:21:24;11.10;97.50
62259;DHT22;48241;48.824;10.102;2022-10-03T17:24:09;11.10;97.50
62259;DHT22;48241;48.824;10.102;2022-10-03T17:26:40;11.20;96.90
62259;DHT22;48241;48.824;10.102;2022-10-03T17:29:28;11.30;96.70
62259;DHT22;48241;48.824;10.102;2022-10-03T17:32:01;11.20;96.80
62259;DHT22;48241;48.824;10.102;2022-10-03T17:34:36;11.20;96.50
62259;DHT22;48241;48.824;10.102;2022-10-03T17:43:00;10.70;98.60
62259;DHT22;48241;48.824;10.102;2022-10-03T17:45:59;10.60;98.90
62259;DHT22;48241;48.824;10.102;2022-10-03T17:48:36;10.50;99.20
62259;DHT22;48241;48.824;10.102;2022-10-03T17:51:29;10.50;99.90
62259;DHT22;48241;48.824;10.102;2022-10-03T17:53:59;10.40;99.50
62259;DHT22;48241;48.824;10.102;2022-10-03T17:56:28;10.40;99.40
62259;DHT22;48241;48.824;10.102;2022-10-03T17:59:29;10.50;99.30
62259;DHT22;48241;48.824;10.102;2022-10-03T18:05:10;10.40;99.60
62259;DHT22;48241;48.824;10.102;2022-10-03T18:07:38;10.40;99.50
62259;DHT22;48241;48.824;10.102;2022-10-03T18:10:06;10.50;99.30
62259;DHT22;48241;48.824;10.102;2022-10-03T18:12:43;10.40;99.50
62259;DHT22;48241;48.824;10.102;2022-10-03T18:15:31;10.50;99.00
62259;DHT22;48241;48.824;10.102;2022-10-03T18:18:15;10.70;98.80
62259;DHT22;48241;48.824;10.102;2022-10-03T18:20:46;10.70;98.10
62259;DHT22;48241;48.824;10.102;2022-10-03T18:23:20;10.80;98.00
62259;DHT22;48241;48.824;10.102;2022-10-03T18:25:56;10.90;98.00
62259;DHT22;48241;48.824;10.102;2022-10-03T18:28:33;10.70;98.20
62259;DHT22;48241;48.824;10.102;2022-10-03T18:31:07;10.60;98.60
62259;DHT22;48241;48.824;10.102;2022-10-03T18:33:54;10.50;99.30
62259;DHT22;48241;48.824;10.102;2022-10-03T18:36:30;10.40;99.60
62259;DHT22;48241;48.824;10.102;2022-10-03T18:39:43;10.40;99.40
62259;DHT22;48241;48.824;10.102;2022-10-03T18:41:46;10.40;99.50
62259;DHT22;48241;48.824;10.102;2022-10-03T18:44:17;10.50;99.10
62259;DHT22;48241;48.824;10.102;2022-10-03T18:46:43;10.50;98.90
62259;DHT22;48241;48.824;10.102;2022-10-03T18:49:28;10.60;98.70
62259;DHT22;48241;48.824;10.102;2022-10-03T18:52:02;10.60;98.30
62259;DHT22;48241;48.824;10.102;2022-10-03T18:57:39;10.60;98.30
62259;DHT22;48241;48.824;10.102;2022-10-03T19:00:17;10.80;97.60
62259;DHT22;48241;48.824;10.102;2022-10-03T19:02:58;10.60;97.90
62259;DHT22;48241;48.824;10.102;2022-10-03T19:05:34;10.60;97.90
62259;DHT22;48241;48.824;10.102;2022-10-03T19:08:24;10.50;98.20
62259;DHT22;48241;48.824;10.102;2022-10-03T19:10:58;10.50;98.20
62259;DHT22;48241;48.824;10.102;2022-10-03T19:13:39;10.40;98.70
62259;DHT22;48241;48.824;10.102;2022-10-03T19:16:15;10.30;98.90
62259;DHT22;48241;48.824;10.102;2022-10-03T19:21:27;10.20;98.90
62259;DHT22;48241;48.824;10.102;2022-10-03T19:24:00;10.10;99.20
62259;DHT22;48241;48.824;10.102;2022-10-03T19:26:32;10.20;99.10
62259;DHT22;48241;48.824;10.102;2022-10-03T19:29:11;10.30;98.90
62259;DHT22;48241;48.824;10.102;2022-10-03T19:31:59;10.30;99.00
62259;DHT22;48241;48.824;10.102;2022-10-03T19:34:40;10.30;98.70
62259;DHT22;48241;48.824;10.102;2022-10-03T19:37:28;10.40;98.50
62259;DHT22;48241;48.824;10.102;2022-10-03T19:39:55;10.40;97.80
62259;DHT22;48241;48.824;10.102;2022-10-03T19:42:28;10.40;98.10
62259;DHT22;48241;48.824;10.102;2022-10-03T19:44:55;10.50;97.70
62259;DHT22;48241;48.824;10.102;2022-10-03T19:47:32;10.50;97.80
62259;DHT22;48241;48.824;10.102;2022-10-03T19:50:10;10.60;97.50
62259;DHT22;48241;48.824;10.102;2022-10-03T19:52:40;10.50;97.30
62259;DHT22;48241;48.824;10.102;2022-10-03T19:55:32;10.50;96.80
62259;DHT22;48241;48.824;10.102;2022-10-03T19:58:00;10.50;96.80
62259;DHT22;48241;48.824;10.102;2022-10-03T20:00:36;10.20;96.90
62259;DHT22;48241;48.824;10.102;2022-10-03T20:03:16;10.20;97.00
62259;DHT22;48241;48.824;10.102;2022-10-03T20:06:00;10.30;96.90
62259;DHT22;48241;48.824;10.102;2022-10-03T20:08:58;10.10;96.80
62259;DHT22;48241;48.824;10.102;2022-10-03T20:11:43;10.00;97.50
62259;DHT22;48241;48.824;10.102;2022-10-03T20:14:18;10.10;97.80
62259;DHT22;48241;48.824;10.102;2022-10-03T20:17:13;10.20;97.70
62259;DHT22;48241;48.824;10.102;2022-10-03T20:20:07;10.40;97.20
62259;DHT22;48241;48.824;10.102;2022-10-03T20:22:35;10.30;96.60
62259;DHT22;48241;48.824;10.102;2022-10-03T20:25:02;10.10;96.70
62259;DHT22;48241;48.824;10.102;2022-10-03T20:27:37;10.10;97.20
62259;DHT22;48241;48.824;10.102;2022-10-03T20:30:30;10.20;96.80
62259;DHT22;48241;48.824;10.102;2022-10-03T20:32:57;10.20;96.60
62259;DHT22;48241;48.824;10.102;2022-10-03T20:35:29;10.20;96.60
62259;DHT22;48241;48.824;10.102;2022-10-03T20:38:12;10.20;96.60
62259;DHT22;48241;48.824;10.102;2022-10-03T20:40:49;10.20;96.40
62259;DHT22;48241;48.824;10.102;2022-10-03T20:44:11;10.20;96.40
62259;DHT22;48241;48.824;10.102;2022-10-03T20:46:46;10.10;96.10
62259;DHT22;48241;48.824;10.102;2022-10-03T20:49:29;10.10;96.00
62259;DHT22;48241;48.824;10.102;2022-10-03T20:52:02;10.10;96.00
62259;DHT22;48241;48.824;10.102;2022-10-03T20:54:58;10.10;95.80
62259;DHT22;48241;48.824;10.102;2022-10-03T20:58:05;10.00;96.00
62259;DHT22;48241;48.824;10.102;2022-10-03T21:00:42;10.10;96.40
62259;DHT22;48241;48.824;10.102;2022-10-03T21:03:25;10.10;96.40
62259;DHT22;48241;48.824;10.102;2022-10-03T21:05:52;9.90;96.40
62259;DHT22;48241;48.824;10.102;2022-10-03T21:08:34;9.80;96.90
62259;DHT22;48241;48.824;10.102;2022-10-03T21:14:02;9.90;96.20
62259;DHT22;48241;48.824;10.102;2022-10-03T21:16:36;9.90;96.50
62259;DHT22;48241;48.824;10.102;2022-10-03T21:19:35;9.70;96.80
62259;DHT22;48241;48.824;10.102;2022-10-03T21:22:03;9.70;96.60
62259;DHT22;48241;48.824;10.102;2022-10-03T21:24:38;9.70;96.80
62259;DHT22;48241;48.824;10.102;2022-10-03T21:27:11;9.60;97.30
62259;DHT22;48241;48.824;10.102;2022-10-03T21:29:39;9.60;97.50
62259;DHT22;48241;48.824;10.102;2022-10-03T21:40:56;9.60;98.50
62259;DHT22;48241;48.824;10.102;2022-10-03T21:43:46;9.80;98.00
62259;DHT22;48241;48.824;10.102;2022-10-03T21:46:25;9.70;97.70
62259;DHT22;48241;48.824;10.102;2022-10-03T21:52:10;9.80;97.30
62259;DHT22;48241;48.824;10.102;2022-10-03T22:00:29;9.80;98.20
62259;DHT22;48241;48.824;10.102;2022-10-03T22:08:30;9.70;98.50
62259;DHT22;48241;48.824;10.102;2022-10-03T22:11:22;9.70;98.80
62259;DHT22;48241;48.824;10.102;2022-10-03T22:19:31;9.50;99.30
62259;DHT22;48241;48.824;10.102;2022-10-03T22:30:14;9.50;99.40
62259;DHT22;48241;48.824;10.102;2022-10-03T22:33:14;9.60;98.60
62259;DHT22;48241;48.824;10.102;2022-10-03T22:38:14;9.80;97.20
62259;DHT22;48241;48.824;10.102;2022-10-03T22:40:40;9.70;97.60
62259;DHT22;48241;48.824;10.102;2022-10-03T22:43:07;9.70;97.70
62259;DHT22;48241;48.824;10.102;2022-10-03T22:45:38;9.80;97.30
62259;DHT22;48241;48.824;10.102;2022-10-03T22:48:10;9.80;96.70
62259;DHT22;48241;48.824;10.102;2022-10-03T22:50:38;9.70;97.10
62259;DHT22;48241;48.824;10.102;2022-10-03T22:53:11;9.50;97.80
62259;DHT22;48241;48.824;10.102;2022-10-03T22:55:43;9.50;98.50
62259;DHT22;48241;48.824;10.102;2022-10-03T22:58:10;9.40;98.20
62259;DHT22;48241;48.824;10.102;2022-10-03T23:00:37;9.50;98.40
62259;DHT22;48241;48.824;10.102;2022-10-03T23:03:09;9.70;97.20
62259;DHT22;48241;48.824;10.102;2022-10-03T23:11:07;9.50;95.90
62259;DHT22;48241;48.824;10.102;2022-10-03T23:16:21;9.30;95.70
62259;DHT22;48241;48.824;10.102;2022-10-03T23:19:16;9.30;96.00
62259;DHT22;48241;48.824;10.102;2022-10-03T23:21:46;9.30;96.30
62259;DHT22;48241;48.824;10.102;2022-10-03T23:29:34;9.20;96.60
62259;DHT22;48241;48.824;10.102;2022-10-03T23:32:03;9.20;96.50
62259;DHT22;48241;48.824;10.102;2022-10-03T23:39:43;9.10;96.30
62259;DHT22;48241;48.824;10.102;2022-10-03T23:50:33;9.10;96.80
62259;DHT22;48241;48.824;10.102;2022-10-03T23:53:02;9.10;96.80
62259;DHT22;48241;48.824;10.102;2022-10-03T23:55:30;9.00;96.80
62259;DHT22;48241;48.824;10.102;2022-10-03T23:57:58;9.10;96.80
